West Branch, New York
Current Conditions -  °F | °C
As of 5:53 AM on Sunday 23 Nov 2014 (Local Time) from KRME Reporting Station
Overcast Overcast  
Wind Chill: 36°   Ceiling: 2300
Heat Index: 40°   Visibility: 9mi
Dew Point: 38°   Wind: 6mph
Humidity: 93%   Direction: 90°E
Pressure: 30.06"   Gusts: NA
Location:  43.3661°N, 75.4626°W
Report Text: KRME 231053Z AUTO 09005KT 9SM OVC023 04/03 A3006 RMK AO2 RAE20 SLP183 P0000 T00440033
Loading
Personal Weather Stations






























Interactive Weather Map New forecast layout! Learn more

10-Day Weather Forecast

Advertisements
Track Severe Weather on mobile